Maud, OK

10:11 AM CDT on October 30, 2014 (GMT -0500)
Northwood | Change Station
CLOSE
Current Station
Personal Weather Station
Location: Seminole, OK
Elevation: 909 ft
Nearby Weather Stations
Active Advisory: Freeze Watch

Elev 909 ft 35.25 °N, 96.69 °W | Updated 2 seconds ago

Partly Cloudy
Partly Cloudy
58.9 °F
Feels Like 58.9 °F
N
6.9
Wind Variable Wind from SSW
Gusts 6.9 mph

Today
High -- | Low -- °F
--% Chance of Precip.
Yesterday
High -- | Low -- °F
Precip. -- in
7:46 AM 6:34 PM
Waxing Crescent, 44% visible
Pressure 30.15 in
Visibility 10.0 miles
Clouds Scattered Clouds 9000 ft
Dew Point 51 °F
Humidity 74%
Rainfall 0.00 in
Snow Depth Not available.
UV 1.4 out of 12
Pollen 4.60 out of 12
Air Quality Not available.
Flu Activity Not available.
METAR KADH 301455Z AUTO 20009KT 10SM SCT090 17/08 A3015 RMK AO2

More Conditions Fewer Conditions

Pressure 30.15 in
Visibility 10.0 miles
Clouds Scattered Clouds 9000 ft
Dew Point 51 °F
Humidity 74%
Rainfall 0.00 in
Snow Depth Not available.
UV 1.4 out of 12
Pollen 4.60 out of 12
Air Quality Not available.
Flu Activity Not available.
METAR KADH 301455Z AUTO 20009KT 10SM SCT090 17/08 A3015 RMK AO2

More Conditions Fewer Conditions

10-Day Weather Forecast

Almanac

Astronomy

Oct. 30, 2014 Rise Set
Actual Time
Civil Twilight
Nautical Twilight
Astronomical Twilight
Moon
Length of Visible Light
Length of Day
Tomorrow will be .
, % of the Moon is Illuminated

Today's Extremes

State Highs State Lows

Community

WunderPhotos

Upload Photos

1,766,387 photos uploaded!

WunderBlogs® & News

Nearby

Air Quality

  Air Quality AQ Index Pollutant
Not available.

Snow Depth

Station Depth Elevation

Earthquake Activity

City Distance Mag. Time & Date
Minimum magnitude displayed is 2.5.

Coastal Water Temperatures

Place Temperature

Nearby Weather Stations